Time;durP1;ratioP1;P1;durP2;ratioP2;P2;SDS_P1;SDS_P2;PMS_P1;PMS_P2;Temp;Humidity;BMP_temperature;BMP_pressure;BME280_temperature;BME280_humidity;BME280_pressure;Samples;Min_cycle;Max_cycle;Signal;HPM_P1;HPM_P2
2023/07/22 00:00:55;;;;;;;14.98;6.22;;;;;;;26.23;55.50;95119.31;5030646;28;20229;-70
2023/07/22 00:03:20;;;;;;;16.73;6.78;;;;;;;26.21;55.47;95116.94;5012781;28;20241;-70
2023/07/22 00:05:46;;;;;;;20.98;6.80;;;;;;;26.20;55.92;95122.59;5039147;28;20213;-71
2023/07/22 00:08:11;;;;;;;14.55;6.60;;;;;;;25.83;57.11;95120.69;5035586;28;20244;-68
2023/07/22 00:10:41;;;;;;;17.83;6.57;;;;;;;25.90;57.55;95137.22;5007548;28;20307;-70
2023/07/22 00:13:07;;;;;;;15.45;7.00;;;;;;;25.64;58.31;95134.09;5021555;28;20298;-69
2023/07/22 00:15:32;;;;;;;12.77;6.63;;;;;;;25.76;58.13;95139.03;5035379;28;20690;-70
2023/07/22 00:17:58;;;;;;;15.45;6.85;;;;;;;25.73;58.08;95135.03;5021231;28;20229;-71
2023/07/22 00:20:25;;;;;;;18.95;6.85;;;;;;;25.83;57.99;95131.41;5021239;28;20230;-70
2023/07/22 00:22:52;;;;;;;15.48;6.68;;;;;;;25.52;59.10;95128.34;5016869;28;20241;-69
2023/07/22 00:25:17;;;;;;;15.90;6.78;;;;;;;25.58;59.33;95126.41;5033694;28;20312;-70
2023/07/22 00:27:42;;;;;;;14.02;6.43;;;;;;;25.62;59.28;95128.22;5035995;28;20233;-71
2023/07/22 00:30:08;;;;;;;16.08;6.80;;;;;;;25.67;58.84;95127.34;5018329;28;20220;-69
2023/07/22 00:32:36;;;;;;;12.60;6.40;;;;;;;25.62;59.73;95135.47;5017088;28;20233;-71
2023/07/22 00:35:05;;;;;;;12.73;5.82;;;;;;;25.63;60.34;95129.78;5021105;28;20260;-70
2023/07/22 00:37:31;;;;;;;12.93;6.18;;;;;;;25.56;60.70;95131.22;5033004;28;20221;-70
2023/07/22 00:39:56;;;;;;;13.32;6.13;;;;;;;25.74;60.40;95131.28;5052787;28;20221;-70
2023/07/22 00:42:22;;;;;;;13.57;6.18;;;;;;;25.58;60.53;95135.22;5025599;28;20232;-71
2023/07/22 00:44:47;;;;;;;14.15;6.43;;;;;;;25.62;60.06;95130.09;5012273;28;20267;-69
2023/07/22 00:47:13;;;;;;;11.52;6.10;;;;;;;25.46;60.83;95134.84;5013148;28;20221;-70
2023/07/22 00:49:38;;;;;;;13.88;6.78;;;;;;;25.42;60.77;95137.28;5016523;28;20264;-71
2023/07/22 00:52:04;;;;;;;13.85;6.47;;;;;;;25.50;60.83;95132.41;5022916;28;20232;-71
2023/07/22 00:54:30;;;;;;;15.13;6.40;;;;;;;25.55;60.18;95149.22;5021486;28;20882;-71
2023/07/22 00:56:56;;;;;;;15.52;6.55;;;;;;;25.46;60.20;95155.50;5025795;28;20229;-70
2023/07/22 00:59:22;;;;;;;15.50;6.70;;;;;;;25.53;58.96;95143.31;4988810;28;20243;-69
2023/07/22 01:01:47;;;;;;;19.42;6.95;;;;;;;25.64;58.29;95150.16;5011339;28;20672;-70
2023/07/22 01:04:13;;;;;;;15.30;6.50;;;;;;;25.66;58.79;95139.94;5044293;28;20291;-70
2023/07/22 01:06:39;;;;;;;13.30;6.43;;;;;;;25.52;59.32;95130.22;5031912;28;20257;-71
2023/07/22 01:09:07;;;;;;;13.43;6.70;;;;;;;25.41;60.36;95132.22;5014776;28;20240;-71
2023/07/22 01:11:32;;;;;;;17.90;6.82;;;;;;;25.43;60.28;95128.13;5015249;28;20611;-71
2023/07/22 01:13:59;;;;;;;18.05;6.95;;;;;;;25.26;60.87;95122.47;5005931;28;20729;-71
2023/07/22 01:16:26;;;;;;;11.82;6.80;;;;;;;25.13;61.51;95116.97;5029734;28;20328;-70
2023/07/22 01:18:52;;;;;;;17.80;6.72;;;;;;;24.87;62.45;95123.69;5011820;28;20325;-71
2023/07/22 01:21:18;;;;;;;14.60;6.65;;;;;;;24.79;62.67;95127.78;5012561;28;20279;-70
2023/07/22 01:23:43;;;;;;;11.98;6.60;;;;;;;24.85;63.08;95133.91;5030778;28;20237;-71
2023/07/22 01:26:09;;;;;;;16.08;6.65;;;;;;;24.73;63.40;95123.53;5015244;28;20229;-70
2023/07/22 01:28:35;;;;;;;20.08;7.03;;;;;;;24.80;63.13;95125.91;5016999;28;20552;-71
2023/07/22 01:31:01;;;;;;;13.32;6.85;;;;;;;24.92;62.95;95116.41;4991969;28;20240;-70
2023/07/22 01:33:27;;;;;;;18.90;7.03;;;;;;;25.09;62.07;95108.72;5033942;28;20229;-71
2023/07/22 01:35:53;;;;;;;12.40;6.50;;;;;;;24.86;62.98;95106.03;5018343;28;20309;-71
2023/07/22 01:38:19;;;;;;;13.32;6.70;;;;;;;24.92;63.43;95115.59;4990953;28;20237;-70
2023/07/22 01:40:44;;;;;;;15.07;6.95;;;;;;;24.66;63.98;95115.03;4988871;28;20320;-70
2023/07/22 01:43:10;;;;;;;14.10;6.78;;;;;;;24.35;65.34;95111.03;5019378;28;20283;-70
2023/07/22 01:45:36;;;;;;;13.85;7.20;;;;;;;24.46;65.29;95108.00;5020700;28;20259;-70
2023/07/22 01:48:02;;;;;;;14.68;6.75;;;;;;;24.38;65.09;95116.66;5023070;28;20225;-70
2023/07/22 01:50:27;;;;;;;14.32;7.35;;;;;;;24.40;65.14;95108.31;5036644;28;20240;-71
2023/07/22 01:52:53;;;;;;;13.40;6.93;;;;;;;24.43;65.05;95105.09;5024042;28;20229;-70
2023/07/22 01:55:18;;;;;;;20.92;7.10;;;;;;;24.65;64.16;95098.19;5034723;28;20406;-71
2023/07/22 01:57:44;;;;;;;14.25;7.13;;;;;;;24.48;64.84;95102.38;5040790;28;20235;-71
2023/07/22 02:00:10;;;;;;;12.50;6.43;;;;;;;24.39;64.23;95096.81;5021504;28;20242;-70
2023/07/22 02:02:36;;;;;;;17.20;7.20;;;;;;;24.40;64.42;95092.25;5002602;28;20224;-70
2023/07/22 02:05:02;;;;;;;13.57;6.57;;;;;;;24.34;64.98;95094.19;5024012;28;20217;-69
2023/07/22 02:07:28;;;;;;;13.77;6.55;;;;;;;24.28;65.17;95097.19;5017512;28;20792;-71
2023/07/22 02:09:54;;;;;;;16.15;7.22;;;;;;;24.25;65.40;95095.06;5004980;28;20229;-71
2023/07/22 02:12:20;;;;;;;15.35;6.75;;;;;;;24.16;66.17;95094.06;5015835;28;20229;-70
2023/07/22 02:14:45;;;;;;;13.93;6.57;;;;;;;24.27;65.40;95103.59;5013830;28;20297;-70
2023/07/22 02:17:11;;;;;;;17.60;7.15;;;;;;;24.15;65.60;95100.50;4995531;28;20252;-70
2023/07/22 02:19:36;;;;;;;14.70;7.40;;;;;;;24.19;65.31;95099.69;5003344;28;20232;-70
2023/07/22 02:22:05;;;;;;;16.80;6.72;;;;;;;24.17;65.61;95104.47;5031041;28;20223;-70
2023/07/22 02:24:31;;;;;;;14.45;6.93;;;;;;;24.24;65.71;95104.19;4993735;28;20620;-71
2023/07/22 02:26:56;;;;;;;15.27;6.82;;;;;;;24.23;66.09;95107.94;4996950;28;20232;-71
2023/07/22 02:29:22;;;;;;;18.02;7.55;;;;;;;24.17;66.76;95104.47;5037030;28;20244;-70
2023/07/22 02:31:47;;;;;;;15.52;6.72;;;;;;;24.16;66.81;95110.13;5031288;28;20264;-71
2023/07/22 02:34:13;;;;;;;18.15;7.10;;;;;;;24.16;67.11;95110.13;5015805;28;20244;-70
2023/07/22 02:36:38;;;;;;;14.95;6.85;;;;;;;24.12;67.26;95117.94;5014586;28;20248;-71
2023/07/22 02:39:04;;;;;;;15.98;6.80;;;;;;;24.25;67.05;95119.94;5019323;28;20240;-71
2023/07/22 02:41:29;;;;;;;16.65;7.13;;;;;;;24.35;66.84;95114.53;5027479;28;20237;-72
2023/07/22 02:43:55;;;;;;;17.15;6.50;;;;;;;24.33;66.93;95114.00;4999167;28;20236;-70
2023/07/22 02:46:20;;;;;;;15.10;6.72;;;;;;;24.18;68.09;95107.97;5013295;28;20290;-70
2023/07/22 02:48:46;;;;;;;14.82;7.00;;;;;;;24.17;68.08;95109.06;5004010;28;20241;-71
2023/07/22 02:51:11;;;;;;;14.80;6.93;;;;;;;24.10;68.41;95109.34;5037147;28;20239;-70
2023/07/22 02:53:37;;;;;;;14.73;6.78;;;;;;;24.12;68.21;95107.22;5031987;28;20228;-70
2023/07/22 02:56:03;;;;;;;14.60;7.00;;;;;;;24.11;68.68;95108.28;5015833;28;20710;-71
2023/07/22 02:58:28;;;;;;;14.90;6.78;;;;;;;24.08;68.64;95123.00;5034100;28;20237;-72
2023/07/22 03:00:54;;;;;;;15.75;6.93;;;;;;;23.95;69.02;95123.59;5016170;28;20694;-71
2023/07/22 03:03:19;;;;;;;15.80;7.20;;;;;;;23.75;70.47;95113.03;5011587;28;20874;-70
2023/07/22 03:05:45;;;;;;;13.05;6.60;;;;;;;23.78;70.10;95114.38;5035698;28;20319;-69
2023/07/22 03:08:13;;;;;;;13.00;6.78;;;;;;;23.78;70.41;95107.16;5016093;28;20225;-72
2023/07/22 03:10:43;;;;;;;16.33;7.00;;;;;;;23.73;70.85;95117.88;5014193;28;20239;-70
2023/07/22 03:13:09;;;;;;;13.15;6.80;;;;;;;23.56;71.13;95112.09;5014129;28;20225;-71
2023/07/22 03:15:35;;;;;;;16.52;6.90;;;;;;;23.73;70.49;95115.19;5016826;28;20229;-72
2023/07/22 03:18:00;;;;;;;12.82;7.28;;;;;;;23.50;71.62;95121.19;5016012;28;20234;-71
2023/07/22 03:20:26;;;;;;;13.13;7.18;;;;;;;23.48;71.69;95114.56;5008518;28;20233;-71
2023/07/22 03:22:52;;;;;;;16.45;7.18;;;;;;;23.66;71.51;95117.38;5001361;28;20989;-70
2023/07/22 03:25:17;;;;;;;14.73;6.97;;;;;;;23.81;71.22;95121.84;5011956;28;20230;-69
2023/07/22 03:27:44;;;;;;;12.52;6.90;;;;;;;23.68;71.21;95114.44;5005818;28;20254;-70
2023/07/22 03:30:14;;;;;;;14.98;7.32;;;;;;;23.58;71.67;95125.16;5007596;28;20254;-70
2023/07/22 03:32:40;;;;;;;15.70;7.25;;;;;;;23.42;72.48;95129.78;5011797;28;20234;-70
2023/07/22 03:35:08;;;;;;;14.02;7.15;;;;;;;23.46;72.50;95130.84;5018583;28;20237;-69
2023/07/22 03:37:35;;;;;;;14.35;7.43;;;;;;;23.67;71.81;95137.69;4996198;28;20277;-70
2023/07/22 03:40:01;;;;;;;15.93;6.90;;;;;;;23.75;71.62;95141.66;5013072;28;20236;-70
2023/07/22 03:42:27;;;;;;;13.60;6.95;;;;;;;23.74;71.88;95140.84;5007294;28;20234;-71
2023/07/22 03:44:52;;;;;;;15.43;7.13;;;;;;;23.85;72.20;95155.78;5008172;28;20291;-71
2023/07/22 03:47:19;;;;;;;19.75;9.45;;;;;;;23.99;71.70;95154.06;4987943;28;20249;-70
2023/07/22 03:49:45;;;;;;;27.90;15.23;;;;;;;23.85;72.27;95154.97;4986596;28;20238;-71
2023/07/22 03:52:14;;;;;;;50.72;25.77;;;;;;;23.82;71.51;95156.31;5006017;28;20218;-70
2023/07/22 03:54:40;;;;;;;45.90;23.00;;;;;;;23.85;71.66;95150.41;5002516;28;20235;-69
2023/07/22 03:57:06;;;;;;;41.22;20.00;;;;;;;23.84;71.70;95164.84;4990128;28;20229;-70
2023/07/22 03:59:31;;;;;;;35.45;17.30;;;;;;;23.93;70.67;95162.41;5010550;28;20272;-70
2023/07/22 04:01:57;;;;;;;30.90;15.60;;;;;;;24.08;70.08;95165.81;5004496;28;20378;-71
2023/07/22 04:04:23;;;;;;;30.10;14.57;;;;;;;24.13;70.04;95174.88;5012106;28;20313;-71
2023/07/22 04:06:48;;;;;;;22.95;11.48;;;;;;;24.16;69.45;95171.66;5010039;28;20234;-71
2023/07/22 04:09:14;;;;;;;22.05;11.18;;;;;;;23.98;70.62;95165.84;4996035;28;20239;-69
2023/07/22 04:11:39;;;;;;;18.58;9.23;;;;;;;23.99;70.50;95174.66;4992987;28;20342;-70
2023/07/22 04:14:05;;;;;;;14.93;8.55;;;;;;;23.84;70.80;95169.41;4999850;28;20230;-71
2023/07/22 04:16:31;;;;;;;15.05;8.68;;;;;;;23.84;71.20;95175.56;4978139;28;20231;-71
2023/07/22 04:18:56;;;;;;;16.20;8.30;;;;;;;23.96;71.03;95168.00;5009447;28;20881;-70
2023/07/22 04:21:22;;;;;;;15.70;8.23;;;;;;;24.05;70.85;95171.69;5012531;28;20222;-70
2023/07/22 04:23:48;;;;;;;15.52;8.07;;;;;;;24.08;69.91;95163.13;5000534;28;20237;-70
2023/07/22 04:26:14;;;;;;;16.45;7.95;;;;;;;24.07;70.50;95166.88;4994200;28;20253;-70
2023/07/22 04:28:40;;;;;;;16.13;7.50;;;;;;;24.27;70.01;95173.16;4981100;28;20704;-71
2023/07/22 04:31:05;;;;;;;16.80;8.10;;;;;;;24.17;69.79;95166.00;5013123;28;20839;-71
2023/07/22 04:33:31;;;;;;;14.77;7.95;;;;;;;24.35;69.26;95177.94;5002163;28;20239;-70
2023/07/22 04:35:58;;;;;;;14.77;7.57;;;;;;;24.41;69.79;95182.19;5007770;28;20223;-69
2023/07/22 04:38:23;;;;;;;15.32;7.90;;;;;;;24.48;69.01;95185.34;5016188;28;20231;-70
2023/07/22 04:40:49;;;;;;;17.02;7.60;;;;;;;24.47;69.22;95189.09;5019230;28;20634;-71
2023/07/22 04:43:14;;;;;;;19.67;8.13;;;;;;;24.46;69.27;95193.63;5000292;28;20245;-70
2023/07/22 04:45:40;;;;;;;17.23;7.97;;;;;;;24.53;69.38;95182.59;4983028;28;20222;-70
2023/07/22 04:48:06;;;;;;;18.20;7.93;;;;;;;24.65;68.80;95191.06;5009042;28;20603;-70
2023/07/22 04:50:31;;;;;;;17.60;8.82;;;;;;;24.64;66.86;95182.25;5014914;28;20300;-71
2023/07/22 04:52:57;;;;;;;19.48;8.60;;;;;;;24.72;67.88;95183.50;4978057;28;20747;-70
2023/07/22 04:55:22;;;;;;;18.42;8.95;;;;;;;24.56;67.91;95185.53;4999022;28;20319;-70
2023/07/22 04:57:51;;;;;;;18.88;9.32;;;;;;;24.68;66.62;95188.66;4975455;28;20239;-70
2023/07/22 05:00:19;;;;;;;18.85;9.40;;;;;;;24.68;67.20;95190.53;4997229;28;20383;-71
2023/07/22 05:02:45;;;;;;;18.10;8.90;;;;;;;24.83;67.40;95190.44;4970436;28;20238;-70
2023/07/22 05:05:10;;;;;;;17.90;8.65;;;;;;;24.84;68.04;95200.03;5011915;28;20292;-71
2023/07/22 05:07:36;;;;;;;16.55;8.93;;;;;;;24.80;67.36;95204.38;5024933;28;20234;-70
2023/07/22 05:10:01;;;;;;;19.80;8.63;;;;;;;24.95;66.59;95206.13;5011202;28;20281;-70
2023/07/22 05:12:27;;;;;;;18.63;8.73;;;;;;;25.23;66.36;95214.16;4995843;28;20316;-71
2023/07/22 05:14:52;;;;;;;14.70;7.88;;;;;;;25.23;66.53;95211.47;4994472;28;20285;-71
2023/07/22 05:17:18;;;;;;;12.25;7.85;;;;;;;25.19;67.62;95209.63;5012887;28;20297;-71
2023/07/22 05:19:49;;;;;;;18.65;8.23;;;;;;;25.59;66.62;95208.41;5014458;28;20226;-72
2023/07/22 05:22:14;;;;;;;16.52;8.32;;;;;;;25.54;66.59;95203.91;5010980;28;20237;-70
2023/07/22 05:24:40;;;;;;;16.25;8.10;;;;;;;25.39;67.04;95201.38;5036292;28;20213;-71
2023/07/22 05:27:06;;;;;;;17.02;8.18;;;;;;;25.56;66.99;95200.94;5034703;28;20234;-71
2023/07/22 05:29:31;;;;;;;14.77;8.23;;;;;;;25.85;65.63;95212.38;5033691;28;20218;-70
2023/07/22 05:31:56;;;;;;;18.38;8.43;;;;;;;25.46;66.75;95209.13;5030703;28;20222;-71
2023/07/22 05:34:22;;;;;;;15.93;8.32;;;;;;;25.81;66.13;95209.50;5014254;28;20285;-71
2023/07/22 05:36:47;;;;;;;18.05;8.60;;;;;;;26.08;65.49;95211.53;5031893;28;20222;-70
2023/07/22 05:39:13;;;;;;;14.63;8.15;;;;;;;25.67;66.69;95210.47;5031574;28;20277;-69
2023/07/22 05:41:39;;;;;;;17.92;8.48;;;;;;;25.55;67.59;95215.44;5031698;28;20226;-71
2023/07/22 05:44:04;;;;;;;17.10;8.90;;;;;;;25.48;67.88;95215.00;5001823;28;20233;-70
2023/07/22 05:46:30;;;;;;;17.90;8.70;;;;;;;25.54;67.90;95211.16;5004222;28;20233;-70
2023/07/22 05:48:56;;;;;;;16.45;8.57;;;;;;;25.60;68.24;95213.50;5000513;28;20308;-70
2023/07/22 05:51:22;;;;;;;15.30;8.07;;;;;;;25.66;68.12;95217.72;5016601;28;20229;-70
2023/07/22 05:53:48;;;;;;;15.82;8.40;;;;;;;25.67;67.35;95210.47;5017148;28;20234;-70
2023/07/22 05:56:13;;;;;;;15.07;8.07;;;;;;;25.66;68.04;95203.50;5027668;28;20229;-70
2023/07/22 05:58:39;;;;;;;15.93;8.60;;;;;;;25.70;68.57;95207.22;5009745;28;20226;-70
2023/07/22 06:01:04;;;;;;;21.40;8.43;;;;;;;25.74;68.46;95213.59;5029168;28;20268;-71
2023/07/22 06:03:30;;;;;;;16.48;8.00;;;;;;;25.85;67.93;95210.50;5045325;28;20291;-71
2023/07/22 06:05:55;;;;;;;17.55;8.52;;;;;;;25.86;67.88;95220.16;5009417;28;20253;-71
2023/07/22 06:08:21;;;;;;;16.33;8.52;;;;;;;25.92;67.06;95232.41;5027449;28;20292;-70
2023/07/22 06:10:46;;;;;;;15.98;8.55;;;;;;;25.89;67.46;95237.53;5043561;28;20226;-71
2023/07/22 06:13:12;;;;;;;17.73;8.30;;;;;;;26.01;67.06;95244.09;4998203;28;20691;-70
2023/07/22 06:15:37;;;;;;;13.00;8.43;;;;;;;25.97;67.59;95243.09;5015032;28;20304;-70
2023/07/22 06:18:03;;;;;;;14.63;8.25;;;;;;;26.05;67.13;95252.38;5044336;28;20241;-70
2023/07/22 06:20:28;;;;;;;13.88;8.02;;;;;;;26.13;67.43;95242.94;5017007;28;20252;-71
2023/07/22 06:22:54;;;;;;;14.65;7.90;;;;;;;26.18;67.51;95242.84;5010544;28;20225;-71
2023/07/22 06:25:20;;;;;;;14.45;8.48;;;;;;;26.24;66.95;95245.19;5048904;28;20786;-71
2023/07/22 06:27:45;;;;;;;15.63;8.43;;;;;;;26.27;66.03;95255.31;5013906;28;20229;-70
2023/07/22 06:30:11;;;;;;;15.18;8.00;;;;;;;26.26;67.16;95248.38;5014731;28;20225;-70
2023/07/22 06:32:37;;;;;;;15.00;8.57;;;;;;;26.29;67.88;95250.47;5024356;28;20225;-71
2023/07/22 06:35:03;;;;;;;21.65;8.30;;;;;;;26.37;68.33;95257.88;5020971;28;20722;-71
2023/07/22 06:37:28;;;;;;;16.80;7.70;;;;;;;26.45;67.74;95257.22;5038216;28;20217;-71
2023/07/22 06:39:54;;;;;;;20.35;8.43;;;;;;;26.48;67.13;95264.72;5036362;28;20299;-70
2023/07/22 06:42:19;;;;;;;16.55;8.02;;;;;;;26.42;68.09;95263.16;5008287;28;20235;-70
2023/07/22 06:44:45;;;;;;;13.02;7.28;;;;;;;26.46;67.32;95260.72;5016872;28;20291;-70
2023/07/22 06:47:10;;;;;;;12.68;7.53;;;;;;;26.56;67.87;95264.03;5015947;28;20305;-72
2023/07/22 06:49:36;;;;;;;16.25;7.90;;;;;;;26.64;67.29;95255.34;5002978;28;20240;-72
2023/07/22 06:52:06;;;;;;;18.70;8.30;;;;;;;26.67;66.64;95254.75;5008692;28;20719;-71
2023/07/22 06:54:32;;;;;;;13.02;7.65;;;;;;;26.71;66.89;95253.06;5029698;28;20707;-71
2023/07/22 06:57:05;;;;;;;13.88;8.00;;;;;;;26.78;66.46;95255.41;5028851;28;20240;-71
2023/07/22 06:59:35;;;;;;;15.55;8.25;;;;;;;26.82;67.25;95251.03;5031056;28;20237;-71
2023/07/22 07:02:01;;;;;;;13.82;7.85;;;;;;;26.77;67.67;95244.97;5004447;28;20309;-71
2023/07/22 07:04:27;;;;;;;14.43;8.15;;;;;;;26.80;67.41;95237.09;5019313;28;20255;-70
2023/07/22 07:06:59;;;;;;;37.47;8.20;;;;;;;26.86;66.40;95244.00;5031455;28;20779;-71
2023/07/22 07:09:25;;;;;;;15.57;8.00;;;;;;;26.84;65.47;95242.72;5016102;28;20233;-82
2023/07/22 07:11:51;;;;;;;13.48;8.00;;;;;;;26.88;66.99;95236.44;5031663;28;20241;-81
2023/07/22 07:14:17;;;;;;;18.35;8.38;;;;;;;27.06;64.58;95235.59;5013414;28;20309;-71
2023/07/22 07:16:44;;;;;;;20.27;8.25;;;;;;;27.06;66.84;95230.22;5011896;28;20225;-72
2023/07/22 07:19:10;;;;;;;13.63;8.38;;;;;;;27.05;65.75;95231.34;5014060;28;20245;-72
2023/07/22 07:21:36;;;;;;;16.77;8.20;;;;;;;27.11;63.91;95226.66;5022195;28;20457;-72
2023/07/22 07:24:05;;;;;;;16.60;8.10;;;;;;;27.27;63.73;95234.16;5052922;28;20240;-71
2023/07/22 07:26:31;;;;;;;13.95;8.00;;;;;;;27.31;63.76;95226.31;5046710;28;20236;-72
2023/07/22 07:28:57;;;;;;;19.90;8.57;;;;;;;27.42;63.20;95226.97;5031913;28;20217;-72
2023/07/22 07:31:23;;;;;;;13.48;8.57;;;;;;;27.55;64.36;95226.16;5014720;28;20264;-72
2023/07/22 07:33:48;;;;;;;19.73;8.60;;;;;;;27.61;63.97;95224.97;5022081;28;20264;-71
2023/07/22 07:36:14;;;;;;;20.30;8.80;;;;;;;27.66;62.41;95231.03;5053449;28;20624;-72
2023/07/22 07:38:40;;;;;;;17.67;8.95;;;;;;;27.68;61.74;95230.75;5008129;28;20298;-72
2023/07/22 07:41:11;;;;;;;15.32;9.68;;;;;;;27.68;62.98;95218.06;5028379;28;20627;-79
2023/07/22 07:43:37;;;;;;;13.05;8.48;;;;;;;27.79;63.08;95222.19;5040369;28;20323;-80
2023/07/22 07:46:17;;;;;;;18.88;9.20;;;;;;;27.78;62.18;95220.56;5032803;28;20233;-77
2023/07/22 07:48:44;;;;;;;19.52;8.95;;;;;;;27.89;60.79;95213.91;5036077;28;20309;-79
2023/07/22 07:51:11;;;;;;;16.45;8.70;;;;;;;27.87;61.21;95221.47;5024890;28;20233;-82
2023/07/22 07:53:37;;;;;;;24.70;9.40;;;;;;;27.80;61.48;95222.97;5021122;28;20229;-78
2023/07/22 07:56:02;;;;;;;20.73;9.30;;;;;;;27.94;61.52;95218.38;5006290;28;20265;-79
2023/07/22 07:58:28;;;;;;;15.73;8.85;;;;;;;28.00;61.36;95215.31;5038763;28;20674;-79
2023/07/22 08:00:54;;;;;;;17.73;8.85;;;;;;;27.99;60.36;95207.50;5015577;28;20813;-82
2023/07/22 08:03:20;;;;;;;18.60;9.07;;;;;;;28.12;60.61;95217.47;5000428;28;20237;-81
2023/07/22 08:05:46;;;;;;;23.40;9.25;;;;;;;28.15;60.49;95221.47;5053700;28;20260;-78
2023/07/22 08:08:11;;;;;;;20.17;9.70;;;;;;;28.24;60.46;95211.56;5054211;28;20604;-78
2023/07/22 08:10:37;;;;;;;16.25;9.35;;;;;;;28.45;60.19;95213.50;5054501;28;20259;-79
2023/07/22 08:13:03;;;;;;;16.13;9.52;;;;;;;28.52;59.14;95213.06;5037275;28;20338;-80
2023/07/22 08:15:28;;;;;;;17.52;8.95;;;;;;;28.57;59.57;95213.75;5020309;28;20221;-80
2023/07/22 08:17:53;;;;;;;14.68;9.50;;;;;;;28.45;58.92;95213.50;5038561;28;20240;-78
2023/07/22 08:20:19;;;;;;;25.17;9.90;;;;;;;28.45;58.97;95210.81;5018448;28;20230;-82
2023/07/22 08:22:44;;;;;;;16.67;10.30;;;;;;;28.48;59.22;95212.09;5015612;28;20225;-79
2023/07/22 08:25:10;;;;;;;20.15;9.85;;;;;;;28.54;59.46;95208.19;5017885;28;20301;-78
2023/07/22 08:27:35;;;;;;;19.85;9.90;;;;;;;28.58;59.02;95207.28;5000728;28;20275;-78
2023/07/22 08:30:01;;;;;;;18.00;9.48;;;;;;;28.65;59.49;95209.56;5035915;28;20234;-81
2023/07/22 08:32:26;;;;;;;17.33;9.82;;;;;;;28.70;60.25;95206.75;5016228;28;20240;-79
2023/07/22 08:34:52;;;;;;;19.45;9.73;;;;;;;28.86;58.65;95202.59;5018848;28;20236;-81
2023/07/22 08:37:18;;;;;;;17.38;9.32;;;;;;;29.02;58.32;95200.31;5010881;28;20352;-80
2023/07/22 08:39:44;;;;;;;21.48;9.90;;;;;;;29.13;58.31;95194.34;4999626;28;20316;-80
2023/07/22 08:42:09;;;;;;;19.67;9.35;;;;;;;29.27;59.04;95189.69;5032458;28;20279;-82
2023/07/22 08:44:35;;;;;;;21.10;10.27;;;;;;;29.39;57.40;95183.72;5037037;28;20253;-80
2023/07/22 08:47:00;;;;;;;20.73;9.82;;;;;;;29.31;56.98;95184.47;5036135;28;20225;-80
2023/07/22 08:49:27;;;;;;;20.60;10.77;;;;;;;29.43;57.18;95178.47;5000820;28;20718;-79
2023/07/22 08:51:54;;;;;;;20.05;10.50;;;;;;;29.50;56.70;95168.84;5011778;28;20245;-82
2023/07/22 08:54:20;;;;;;;19.65;10.25;;;;;;;29.51;57.18;95158.84;4973851;28;20260;-83
2023/07/22 08:56:50;;;;;;;19.00;10.48;;;;;;;29.72;55.68;95159.84;5045436;28;20689;-79
2023/07/22 08:59:16;;;;;;;21.30;9.75;;;;;;;29.89;55.64;95158.03;5010460;28;20254;-81
2023/07/22 09:01:42;;;;;;;21.30;9.95;;;;;;;29.98;54.51;95148.03;5032104;28;20370;-82
2023/07/22 09:04:09;;;;;;;21.55;9.90;;;;;;;29.99;55.25;95157.72;5049157;28;20236;-81
2023/07/22 09:06:35;;;;;;;21.55;9.48;;;;;;;30.05;55.38;95163.75;5027207;28;20269;-80
2023/07/22 09:09:06;;;;;;;20.48;10.07;;;;;;;30.20;54.74;95154.41;5030909;28;20233;-82
2023/07/22 09:11:33;;;;;;;17.85;9.80;;;;;;;30.39;53.06;95150.31;5013809;28;20640;-80
2023/07/22 09:14:05;;;;;;;21.98;9.88;;;;;;;30.42;52.46;95148.88;4995614;28;20725;-80
2023/07/22 09:16:32;;;;;;;20.05;9.40;;;;;;;30.54;51.87;95155.25;4980169;28;20282;-77
2023/07/22 09:18:59;;;;;;;22.77;10.52;;;;;;;30.67;51.21;95163.50;4994944;28;20268;-81
2023/07/22 09:21:24;;;;;;;21.80;9.70;;;;;;;30.76;51.58;95158.88;5036330;28;20221;-81
2023/07/22 09:23:50;;;;;;;22.17;9.68;;;;;;;30.69;50.48;95156.63;5030386;28;20257;-81
2023/07/22 09:26:17;;;;;;;20.92;9.77;;;;;;;30.70;51.51;95152.03;5016429;28;20232;-80
2023/07/22 09:29:00;;;;;;;20.35;9.07;;;;;;;30.81;52.26;95145.19;5041171;28;20246;-82
2023/07/22 09:31:28;;;;;;;16.95;9.48;;;;;;;30.84;51.26;95147.22;5005989;28;20244;-81
2023/07/22 09:33:54;;;;;;;23.40;9.82;;;;;;;30.91;50.85;95144.84;5020114;28;20293;-79
2023/07/22 09:36:22;;;;;;;23.42;10.13;;;;;;;30.85;50.06;95140.72;5006590;28;20316;-83
2023/07/22 09:39:03;;;;;;;37.25;9.95;;;;;;;30.90;50.88;95143.28;5023095;28;20306;-82
2023/07/22 09:41:30;;;;;;;21.60;9.38;;;;;;;30.99;51.34;95133.22;5002002;28;20242;-75
2023/07/22 09:44:07;;;;;;;22.23;9.43;;;;;;;31.18;51.30;95130.94;5007887;28;20294;-73
2023/07/22 09:46:35;;;;;;;23.27;10.35;;;;;;;31.40;49.08;95133.41;5033986;28;20236;-80
2023/07/22 09:49:05;;;;;;;17.38;9.68;;;;;;;31.46;49.78;95137.53;5032387;28;20233;-84
2023/07/22 09:51:58;;;;;;;21.70;9.35;;;;;;;31.52;49.83;95125.41;5013992;28;20324;-81
2023/07/22 09:54:28;;;;;;;22.65;9.70;;;;;;;31.63;49.79;95126.63;5033721;28;20718;-82
2023/07/22 09:56:58;;;;;;;22.58;9.70;;;;;;;31.71;50.46;95125.00;5018379;28;20240;-81
2023/07/22 09:59:33;;;;;;;21.15;9.82;;;;;;;31.83;48.54;95125.88;5002318;28;20245;-81
2023/07/22 10:02:02;;;;;;;19.65;9.20;;;;;;;31.87;48.61;95113.25;5032092;28;20243;-82
2023/07/22 10:04:40;;;;;;;22.63;9.40;;;;;;;31.92;48.30;95118.47;5017134;28;20233;-82
2023/07/22 10:07:06;;;;;;;20.70;8.98;;;;;;;32.15;47.13;95121.69;5048935;28;20224;-84
2023/07/22 10:09:42;;;;;;;21.40;9.38;;;;;;;32.30;46.33;95115.66;4990159;28;20741;-83
2023/07/22 10:12:13;;;;;;;23.75;9.35;;;;;;;32.23;45.88;95117.31;5034130;28;20244;-81
2023/07/22 10:14:43;;;;;;;22.25;9.40;;;;;;;32.23;48.44;95115.41;5005668;28;20232;-82
2023/07/22 10:17:09;;;;;;;23.58;8.65;;;;;;;32.38;44.09;95119.44;5020068;28;20241;-84
2023/07/22 10:19:35;;;;;;;20.63;8.73;;;;;;;32.55;43.99;95108.47;5003672;28;20297;-75
2023/07/22 10:22:05;;;;;;;22.73;8.77;;;;;;;32.71;43.66;95112.13;5003838;28;20229;-83
2023/07/22 10:24:37;;;;;;;33.10;9.23;;;;;;;32.77;44.15;95102.66;5038005;28;21007;-82
2023/07/22 10:27:04;;;;;;;21.52;9.40;;;;;;;32.89;44.60;95102.69;5015662;28;20248;-72
2023/07/22 10:29:29;;;;;;;22.45;8.68;;;;;;;32.98;43.77;95106.09;5010736;28;20229;-74
2023/07/22 10:31:55;;;;;;;24.35;8.63;;;;;;;33.20;43.76;95094.84;5028052;28;20304;-71
2023/07/22 10:34:25;;;;;;;24.55;8.40;;;;;;;33.41;42.34;95105.63;5013064;28;20314;-72
2023/07/22 10:36:51;;;;;;;26.17;8.15;;;;;;;33.62;41.19;95110.97;5038567;28;20225;-73
2023/07/22 10:39:48;;;;;;;21.38;8.10;;;;;;;33.76;38.96;95111.41;5013291;28;20237;-72
2023/07/22 10:42:24;;;;;;;22.23;8.20;;;;;;;33.75;39.86;95102.44;5028738;28;20295;-72
2023/07/22 10:44:50;;;;;;;24.13;7.80;;;;;;;33.75;39.58;95101.66;5002115;28;20264;-73
2023/07/22 10:47:35;;;;;;;24.45;7.13;;;;;;;33.70;38.92;95093.75;5051650;28;20744;-74
2023/07/22 10:50:23;;;;;;;30.15;7.28;;;;;;;33.87;37.95;95110.59;4977553;28;20229;-72
2023/07/22 10:52:52;;;;;;;30.75;6.65;;;;;;;34.12;36.02;95103.22;5000715;28;20244;-71
2023/07/22 10:55:21;;;;;;;24.10;6.57;;;;;;;34.07;36.33;95100.75;5014492;28;20272;-72
2023/07/22 10:57:52;;;;;;;28.67;6.57;;;;;;;34.24;36.48;95088.78;4978453;28;20226;-73
2023/07/22 11:00:22;;;;;;;25.88;6.57;;;;;;;34.35;37.12;95085.25;5013602;28;20245;-75
2023/07/22 11:03:10;;;;;;;27.27;6.78;;;;;;;34.39;36.42;95091.56;5008238;28;20241;-72
2023/07/22 11:05:51;;;;;;;24.30;6.32;;;;;;;34.58;36.20;95084.72;5042356;28;20286;-72
2023/07/22 11:08:17;;;;;;;28.88;7.15;;;;;;;34.51;36.73;95091.50;5013916;28;20238;-73
2023/07/22 11:10:57;;;;;;;25.90;6.50;;;;;;;34.60;36.47;95094.13;5033308;28;20306;-70
2023/07/22 11:13:29;;;;;;;26.65;6.82;;;;;;;34.45;35.92;95083.94;5048061;28;20232;-70
2023/07/22 11:15:58;;;;;;;29.98;6.63;;;;;;;34.52;35.36;95078.72;5046913;28;20815;-70
2023/07/22 11:18:36;;;;;;;27.08;6.53;;;;;;;34.65;35.29;95079.47;5011401;28;20240;-71
2023/07/22 11:21:02;;;;;;;30.90;6.38;;;;;;;34.59;35.62;95070.78;5011945;28;20216;-70
2023/07/22 11:23:27;;;;;;;29.67;6.43;;;;;;;34.73;35.25;95081.25;5020655;28;20232;-71